Terminal Aerodrome Forecast
Issued by NWS Binghamton, NY

Home | Current Version | Previous Version | Text Only | Print | Product List | Glossary On
Versions: 1 2 3 4 5 6 7 8 9 10 11 12 13 14 15 16 17 18
000
FTUS41 KBGM 251002 AAB
TAFBGM
TAF AMD
KBGM 251002Z 2510/2606 12012G20KT P6SM OVC040
      TEMPO 2510/2512 -SHRA
     FM251200 10012G22KT P6SM OVC040
     FM251900 10012G20KT P6SM -RA OVC015
     FM260000 10010KT 5SM -DZ BR OVC008=

USA.gov is the U.S. government's official web portal to all federal, state and local government web resources and services.